Time;durP1;ratioP1;P1;durP2;ratioP2;P2;SDS_P1;SDS_P2;PMS_P1;PMS_P2;Temp;Humidity;BMP_temperature;BMP_pressure;BME280_temperature;BME280_humidity;BME280_pressure;Samples;Min_cycle;Max_cycle;Signal;HPM_P1;HPM_P2
2023/03/09 00:01:37;;;;;;;27.33;13.25;;;;;;;-0.19;100.00;98991.31;4951163;28;20071;-77
2023/03/09 00:04:03;;;;;;;32.47;14.05;;;;;;;-0.18;100.00;98984.19;4951769;29;20475;-76
2023/03/09 00:06:29;;;;;;;29.73;14.07;;;;;;;-0.18;100.00;98973.50;4951937;29;20074;-76
2023/03/09 00:08:55;;;;;;;24.92;11.73;;;;;;;-0.19;100.00;98961.94;4949995;29;20039;-76
2023/03/09 00:11:20;;;;;;;28.50;13.70;;;;;;;-0.20;100.00;98962.88;4951261;28;20037;-76
2023/03/09 00:13:48;;;;;;;30.77;14.25;;;;;;;-0.20;100.00;98970.91;4950743;28;20101;-76
2023/03/09 00:16:20;;;;;;;28.38;13.68;;;;;;;-0.26;100.00;98964.09;4951270;28;20046;-76
2023/03/09 00:18:46;;;;;;;32.15;14.38;;;;;;;-0.19;100.00;98950.38;4949763;28;20039;-76
2023/03/09 00:21:33;;;;;;;32.03;13.85;;;;;;;-0.21;100.00;98955.81;4949918;29;20091;-76
2023/03/09 00:23:57;;;;;;;32.45;13.73;;;;;;;-0.22;100.00;98979.97;4950009;29;20035;-76
2023/03/09 00:26:22;;;;;;;36.47;15.10;;;;;;;-0.22;100.00;98979.97;4949429;28;20032;-76
2023/03/09 00:28:48;;;;;;;34.08;15.52;;;;;;;-0.23;100.00;98991.59;4950041;28;20039;-76
2023/03/09 00:31:13;;;;;;;36.15;15.88;;;;;;;-0.21;100.00;99001.25;4951112;28;20050;-76
2023/03/09 00:33:38;;;;;;;34.05;15.52;;;;;;;-0.21;100.00;99001.25;4950127;28;20074;-76
2023/03/09 00:36:06;;;;;;;37.25;15.38;;;;;;;-0.20;100.00;99010.13;4970243;28;20027;-76
2023/03/09 00:38:32;;;;;;;34.15;16.20;;;;;;;-0.24;100.00;99006.75;4970342;28;20372;-76
2023/03/09 00:40:57;;;;;;;29.10;13.07;;;;;;;-0.18;100.00;99009.09;4955522;28;20134;-76
2023/03/09 00:43:23;;;;;;;32.70;13.93;;;;;;;-0.19;100.00;99011.84;4949019;28;20019;-76
2023/03/09 00:45:48;;;;;;;32.67;14.50;;;;;;;-0.18;100.00;99025.13;4949610;28;20043;-76
2023/03/09 00:48:13;;;;;;;33.10;14.95;;;;;;;-0.17;100.00;99024.19;4950656;28;20065;-76
2023/03/09 00:50:39;;;;;;;34.08;13.55;;;;;;;-0.17;100.00;99026.84;4950671;28;20023;-76
2023/03/09 00:53:04;;;;;;;31.20;12.95;;;;;;;-0.16;100.00;99033.91;4950739;29;20035;-76
2023/03/09 00:55:29;;;;;;;27.67;13.65;;;;;;;-0.15;100.00;99032.09;4950942;28;20067;-76
2023/03/09 00:57:55;;;;;;;28.95;12.77;;;;;;;-0.14;100.00;99033.81;4949191;28;20039;-76
2023/03/09 01:00:21;;;;;;;27.02;13.10;;;;;;;-0.15;100.00;99040.97;4947090;29;20428;-76
2023/03/09 01:02:46;;;;;;;32.60;13.82;;;;;;;-0.15;100.00;99056.16;4950593;28;20117;-76
2023/03/09 01:05:11;;;;;;;27.27;13.50;;;;;;;-0.15;100.00;99048.97;4949632;29;20194;-76
2023/03/09 01:07:37;;;;;;;30.77;13.63;;;;;;;-0.15;100.00;99046.31;4949204;29;20085;-76
2023/03/09 01:10:03;;;;;;;30.08;15.07;;;;;;;-0.12;100.00;99061.31;4950575;29;20077;-76
2023/03/09 01:12:29;;;;;;;28.38;13.75;;;;;;;-0.13;100.00;99089.84;4950905;28;20039;-76
2023/03/09 01:14:56;;;;;;;31.58;14.80;;;;;;;-0.13;100.00;99092.53;4949120;28;20039;-76
2023/03/09 01:17:22;;;;;;;38.03;16.58;;;;;;;-0.12;100.00;99094.25;4933091;29;20262;-76
2023/03/09 01:19:48;;;;;;;32.63;14.45;;;;;;;-0.13;100.00;99091.69;4933124;29;20513;-76
2023/03/09 01:22:13;;;;;;;40.33;16.25;;;;;;;-0.11;100.00;99095.09;4933456;29;20035;-76
2023/03/09 01:24:41;;;;;;;40.03;17.05;;;;;;;-0.11;100.00;99092.44;4950458;29;20035;-76
2023/03/09 01:27:09;;;;;;;34.28;14.98;;;;;;;-0.09;100.00;99077.19;4936575;29;20695;-76
2023/03/09 01:29:34;;;;;;;33.47;15.23;;;;;;;-0.09;100.00;99098.56;4940336;29;20036;-76
2023/03/09 01:32:00;;;;;;;35.65;16.17;;;;;;;-0.10;100.00;99108.38;4950557;28;20039;-76
2023/03/09 01:34:25;;;;;;;33.17;15.43;;;;;;;-0.10;100.00;99105.69;4950527;29;20046;-76
2023/03/09 01:36:50;;;;;;;35.50;16.23;;;;;;;-0.08;100.00;99108.31;4950677;29;20091;-76
2023/03/09 01:39:16;;;;;;;33.85;15.07;;;;;;;-0.08;100.00;99119.84;4935284;28;20029;-76
2023/03/09 01:41:41;;;;;;;33.20;15.48;;;;;;;-0.08;100.00;99124.34;4951360;28;20094;-76
2023/03/09 01:44:13;;;;;;;33.40;14.35;;;;;;;-0.07;100.00;99121.56;4953512;28;20467;-76
2023/03/09 01:46:46;;;;;;;33.72;16.08;;;;;;;-0.07;100.00;99124.25;4953302;28;20039;-76
2023/03/09 01:49:18;;;;;;;;;;;;;;;-0.05;100.00;99130.38;4936823;29;20399;-76
2023/03/09 01:52:04;;;;;;;31.10;15.02;;;;;;;-0.10;100.00;99127.09;4953822;29;20363;-76
2023/03/09 01:54:58;;;;;;;33.20;14.52;;;;;;;-0.06;100.00;99133.97;4941972;29;20086;-76
2023/03/09 01:57:32;;;;;;;30.88;14.00;;;;;;;-0.04;100.00;99133.91;4950870;28;20042;-75
2023/03/09 02:00:05;;;;;;;36.75;16.13;;;;;;;-0.06;100.00;99138.47;4953663;28;20162;-76
2023/03/09 02:02:42;;;;;;;;;;;;;;;-0.03;100.00;99143.66;4964100;28;20047;-76
2023/03/09 02:05:16;;;;;;;32.78;13.32;;;;;;;-0.04;100.00;99149.97;4936470;29;20005;-76
2023/03/09 02:07:45;;;;;;;34.20;15.40;;;;;;;-0.06;100.00;99163.38;4958229;28;20383;-76
2023/03/09 02:10:20;;;;;;;33.20;15.07;;;;;;;-0.05;100.00;99169.59;4943782;29;20027;-76
2023/03/09 02:12:54;;;;;;;33.92;15.00;;;;;;;-0.03;100.00;99162.38;4950114;28;20027;-76
2023/03/09 02:15:22;;;;;;;35.72;15.35;;;;;;;-0.01;100.00;99163.13;4951398;28;20234;-76
2023/03/09 02:17:48;;;;;;;33.63;14.00;;;;;;;-0.01;100.00;99163.13;4954199;28;20089;-75
2023/03/09 02:20:17;;;;;;;32.72;14.25;;;;;;;-0.01;100.00;99152.44;4968329;28;20042;-75
2023/03/09 02:22:44;;;;;;;35.67;15.45;;;;;;;-0.02;100.00;99143.56;4954234;28;20704;-75
2023/03/09 02:25:30;;;;;;;35.88;14.70;;;;;;;-0.01;100.00;99153.28;4965301;28;20042;-76
2023/03/09 02:27:56;;;;;;;34.65;14.15;;;;;;;-0.01;100.00;99163.97;4969543;28;20030;-76
2023/03/09 02:30:25;;;;;;;32.80;13.98;;;;;;;0.01;100.00;99168.41;4946804;28;20550;-75
2023/03/09 02:32:50;;;;;;;34.40;14.85;;;;;;;-0.01;100.00;99168.47;4954070;28;20038;-75
2023/03/09 02:35:16;;;;;;;36.92;16.40;;;;;;;-0.01;100.00;99182.69;4954324;28;20089;-75
2023/03/09 02:37:48;;;;;;;34.88;16.38;;;;;;;0.00;100.00;99180.91;4968957;28;20046;-75
2023/03/09 02:40:29;;;;;;;29.00;14.15;;;;;;;-0.03;100.00;99178.41;4951308;29;20038;-76
2023/03/09 02:42:58;;;;;;;36.75;15.77;;;;;;;-0.02;100.00;99189.00;4952249;29;20035;-76
2023/03/09 02:45:25;;;;;;;33.53;16.10;;;;;;;-0.04;100.00;99185.56;4952225;28;20483;-76
2023/03/09 02:47:52;;;;;;;35.88;15.88;;;;;;;-0.03;100.00;99178.41;4951713;29;20108;-76
2023/03/09 02:50:18;;;;;;;39.08;16.23;;;;;;;-0.02;100.00;99183.66;4934318;28;20038;-76
2023/03/09 02:52:44;;;;;;;36.45;16.35;;;;;;;0.01;100.00;99185.31;4958147;28;20027;-76
2023/03/09 02:55:10;;;;;;;37.83;16.70;;;;;;;-0.03;100.00;99181.06;4970770;28;20426;-76
2023/03/09 02:57:36;;;;;;;36.70;16.40;;;;;;;0.00;100.00;99186.25;4970168;28;20035;-75
2023/03/09 03:00:03;;;;;;;36.53;15.38;;;;;;;-0.01;100.00;99189.84;4945121;28;20126;-76
2023/03/09 03:02:29;;;;;;;41.80;17.00;;;;;;;-0.03;100.00;99195.28;4962768;28;20382;-75
2023/03/09 03:04:56;;;;;;;38.38;14.98;;;;;;;-0.02;100.00;99191.66;4954227;28;20041;-75
2023/03/09 03:07:23;;;;;;;37.95;16.48;;;;;;;0.00;100.00;99188.94;4949164;28;20403;-75
2023/03/09 03:09:48;;;;;;;34.50;14.93;;;;;;;0.00;100.00;99188.94;4948286;28;20031;-75
2023/03/09 03:12:13;;;;;;;38.10;16.77;;;;;;;0.01;100.00;99187.13;4948572;28;20031;-75
2023/03/09 03:14:39;;;;;;;44.85;17.85;;;;;;;0.01;100.00;99193.31;4934240;28;20034;-75
2023/03/09 03:17:04;;;;;;;38.72;17.45;;;;;;;0.01;100.00;99187.13;4949815;28;20391;-75
2023/03/09 03:19:32;;;;;;;42.88;17.08;;;;;;;0.00;100.00;99191.59;4948446;28;20624;-75
2023/03/09 03:21:58;;;;;;;41.92;17.80;;;;;;;-0.04;100.00;99187.38;4943674;28;20047;-75
2023/03/09 03:24:23;;;;;;;44.60;17.85;;;;;;;-0.05;100.00;99201.66;4977269;28;20042;-75
2023/03/09 03:26:50;;;;;;;44.10;18.83;;;;;;;-0.05;100.00;99209.69;4927364;28;20023;-76
2023/03/09 03:29:19;;;;;;;46.10;18.67;;;;;;;-0.08;100.00;99209.88;4968277;28;20034;-75
2023/03/09 03:31:44;;;;;;;44.45;18.58;;;;;;;-0.09;100.00;99217.03;4948581;28;20039;-76
2023/03/09 03:34:10;;;;;;;48.92;19.45;;;;;;;-0.07;100.00;99223.13;4953671;28;20513;-76
2023/03/09 03:36:39;;;;;;;44.85;18.50;;;;;;;-0.08;100.00;99217.88;4950134;28;20122;-75
2023/03/09 03:39:05;;;;;;;47.45;19.15;;;;;;;-0.07;100.00;99235.66;4948328;28;20141;-75
2023/03/09 03:41:31;;;;;;;42.53;18.15;;;;;;;-0.06;100.00;99250.72;4949960;28;20031;-75
2023/03/09 03:43:59;;;;;;;52.15;20.58;;;;;;;-0.08;100.00;99252.63;4949233;28;20499;-75
2023/03/09 03:46:25;;;;;;;53.45;20.73;;;;;;;-0.07;100.00;99257.03;4962745;28;20041;-75
2023/03/09 03:48:50;;;;;;;55.70;21.10;;;;;;;-0.07;100.00;99265.91;4969363;28;20114;-75
2023/03/09 03:51:18;;;;;;;53.38;20.17;;;;;;;-0.08;100.00;99258.84;4947763;28;20027;-75
2023/03/09 03:53:46;;;;;;;50.75;19.55;;;;;;;-0.06;100.00;99258.75;4949537;28;20554;-75
2023/03/09 03:56:12;;;;;;;50.38;20.65;;;;;;;-0.06;100.00;99262.28;4972374;28;20042;-75
2023/03/09 03:58:39;;;;;;;54.42;20.88;;;;;;;-0.03;100.00;99269.28;4974140;28;20133;-75
2023/03/09 04:01:05;;;;;;;51.15;19.85;;;;;;;-0.01;100.00;99281.59;4975098;28;20034;-75
2023/03/09 04:03:30;;;;;;;44.10;18.65;;;;;;;0.01;100.00;99278.88;4946839;28;20407;-75
2023/03/09 04:05:56;;;;;;;57.42;23.73;;;;;;;0.01;100.00;99270.84;4961307;28;20039;-75
2023/03/09 04:08:22;;;;;;;51.45;19.83;;;;;;;0.02;100.00;99266.34;4969292;28;20030;-75
2023/03/09 04:10:50;;;;;;;52.28;20.63;;;;;;;0.02;100.00;99279.72;4976934;28;20121;-75
2023/03/09 04:13:16;;;;;;;50.78;20.48;;;;;;;0.02;100.00;99285.94;4929484;28;20089;-75
2023/03/09 04:15:43;;;;;;;51.33;20.33;;;;;;;0.02;100.00;99293.94;4952901;28;20495;-75
2023/03/09 04:18:08;;;;;;;54.28;22.10;;;;;;;0.04;100.00;99289.38;4949028;29;20099;-75
2023/03/09 04:20:36;;;;;;;49.63;19.95;;;;;;;0.04;100.00;99300.06;4950121;28;20027;-75
2023/03/09 04:23:02;;;;;;;52.60;21.30;;;;;;;0.01;100.00;99289.56;4950219;29;20487;-75
2023/03/09 04:25:28;;;;;;;50.85;19.52;;;;;;;0.02;100.00;99293.09;4950042;28;20090;-75
2023/03/09 04:27:54;;;;;;;60.15;20.98;;;;;;;0.04;100.00;99305.41;4950047;29;20031;-75
2023/03/09 04:30:25;;;;;;;52.33;20.35;;;;;;;0.04;100.00;99307.22;4949459;28;20034;-75
2023/03/09 04:32:54;;;;;;;50.38;21.83;;;;;;;0.03;100.00;99301.00;4947625;29;20495;-75
2023/03/09 04:35:20;;;;;;;57.85;21.58;;;;;;;0.03;100.00;99303.69;4950041;29;20026;-75
2023/03/09 04:37:48;;;;;;;63.85;22.90;;;;;;;0.02;100.00;99306.47;4948625;29;20487;-75
2023/03/09 04:40:16;;;;;;;56.28;22.88;;;;;;;0.02;100.00;99314.47;4949561;28;20491;-75
2023/03/09 04:42:41;;;;;;;57.33;23.92;;;;;;;0.02;100.00;99317.16;4950628;29;20126;-75
2023/03/09 04:45:08;;;;;;;66.88;24.42;;;;;;;0.01;100.00;99320.78;4948670;28;20267;-75
2023/03/09 04:47:33;;;;;;;61.67;23.13;;;;;;;0.02;100.00;99327.84;4937764;29;20066;-75
2023/03/09 04:49:59;;;;;;;57.63;23.88;;;;;;;0.02;100.00;99328.69;4950120;29;20046;-75
2023/03/09 04:52:26;;;;;;;71.38;24.77;;;;;;;0.04;100.00;99331.28;4949876;28;20054;-75
2023/03/09 04:54:54;;;;;;;68.97;25.45;;;;;;;0.06;100.00;99337.44;4949499;29;20050;-75
2023/03/09 04:57:21;;;;;;;64.88;24.20;;;;;;;0.06;100.00;99340.09;4933544;29;20027;-75
2023/03/09 04:59:47;;;;;;;64.28;24.05;;;;;;;0.05;100.00;99341.91;4950414;28;20052;-75
2023/03/09 05:02:12;;;;;;;66.38;25.92;;;;;;;0.06;100.00;99351.66;4949198;28;20062;-75
2023/03/09 05:04:42;;;;;;;53.60;22.73;;;;;;;0.06;100.00;99362.34;4962765;28;20038;-75
2023/03/09 05:07:07;;;;;;;67.05;24.48;;;;;;;0.05;100.00;99349.94;4956202;28;20039;-75
2023/03/09 05:09:33;;;;;;;59.78;25.55;;;;;;;0.04;100.00;99352.66;4949581;28;20118;-75
2023/03/09 05:11:58;;;;;;;71.63;27.35;;;;;;;0.04;100.00;99361.56;4949809;28;20035;-75
2023/03/09 05:14:24;;;;;;;67.07;25.55;;;;;;;0.04;100.00;99363.38;4953283;28;20031;-75
2023/03/09 05:16:51;;;;;;;65.00;25.50;;;;;;;0.05;100.00;99368.66;4949476;28;20037;-75
2023/03/09 05:19:21;;;;;;;70.68;26.33;;;;;;;0.05;100.00;99378.44;4953334;29;20038;-75
2023/03/09 05:21:47;;;;;;;67.32;26.10;;;;;;;0.03;100.00;99373.19;4953178;29;20039;-75
2023/03/09 05:24:14;;;;;;;59.72;22.05;;;;;;;0.04;100.00;99387.41;4953347;29;20038;-75
2023/03/09 05:26:40;;;;;;;70.40;28.13;;;;;;;0.01;100.00;99383.13;4952939;28;20122;-75
2023/03/09 05:29:06;;;;;;;61.78;25.70;;;;;;;0.01;100.00;99385.78;4952803;28;20567;-75
2023/03/09 05:31:34;;;;;;;65.00;25.92;;;;;;;0.01;100.00;99382.25;4952922;28;20393;-75
2023/03/09 05:34:00;;;;;;;65.85;25.40;;;;;;;0.01;100.00;99385.78;4953376;28;20039;-75
2023/03/09 05:36:26;;;;;;;61.58;25.33;;;;;;;0.02;100.00;99390.19;4952825;29;20407;-76
2023/03/09 05:38:55;;;;;;;74.80;25.08;;;;;;;0.02;100.00;99389.31;4952488;28;20035;-76
2023/03/09 05:41:21;;;;;;;68.78;26.67;;;;;;;0.01;100.00;99369.75;4952304;28;20223;-76
2023/03/09 05:43:51;;;;;;;66.47;26.23;;;;;;;0.00;100.00;99373.38;4952371;28;20155;-76
2023/03/09 05:46:17;;;;;;;63.05;25.25;;;;;;;-0.02;100.00;99381.47;4951861;28;20061;-76
2023/03/09 05:48:45;;;;;;;67.82;27.00;;;;;;;0.02;100.00;99382.16;4954005;28;20436;-75
2023/03/09 05:51:11;;;;;;;62.47;23.02;;;;;;;0.03;100.00;99378.53;4936550;29;20062;-75
2023/03/09 05:53:37;;;;;;;65.13;26.13;;;;;;;0.04;100.00;99382.94;4952565;28;20035;-75
2023/03/09 05:56:05;;;;;;;66.72;23.50;;;;;;;0.06;100.00;99393.56;4953911;28;20026;-75
2023/03/09 05:58:33;;;;;;;64.40;25.17;;;;;;;0.05;100.00;99394.50;4954170;28;20043;-75
2023/03/09 06:00:59;;;;;;;65.18;25.85;;;;;;;0.06;100.00;99404.25;4951968;29;20035;-75
2023/03/09 06:03:26;;;;;;;64.28;23.50;;;;;;;0.03;100.00;99407.94;4952165;28;20558;-75
2023/03/09 06:06:01;;;;;;;62.67;25.98;;;;;;;0.07;100.00;99419.34;4963428;28;20066;-75
2023/03/09 06:08:28;;;;;;;69.32;27.77;;;;;;;0.08;100.00;99416.59;4955618;28;20062;-75
2023/03/09 06:11:00;;;;;;;65.80;25.80;;;;;;;0.09;100.00;99409.44;4948112;29;20503;-75
2023/03/09 06:13:27;;;;;;;64.65;25.38;;;;;;;0.09;100.00;99399.59;4948463;28;20517;-75
2023/03/09 06:15:53;;;;;;;63.58;22.85;;;;;;;0.09;100.00;99402.28;4940459;29;20145;-75
2023/03/09 06:18:18;;;;;;;59.72;24.23;;;;;;;0.13;100.00;99425.22;4946037;29;20479;-75
2023/03/09 06:20:45;;;;;;;67.60;25.33;;;;;;;0.14;100.00;99428.75;4958794;28;20397;-75
2023/03/09 06:23:12;;;;;;;70.70;26.15;;;;;;;0.15;100.00;99427.84;4955075;28;20094;-75
2023/03/09 06:25:38;;;;;;;63.40;23.90;;;;;;;0.17;100.00;99421.44;4970988;28;20035;-75
2023/03/09 06:28:03;;;;;;;69.05;24.60;;;;;;;0.19;100.00;99429.41;4952393;28;20034;-75
2023/03/09 06:30:32;;;;;;;66.07;23.80;;;;;;;0.22;100.00;99445.28;4948230;29;20023;-75
2023/03/09 06:32:58;;;;;;;64.85;25.85;;;;;;;0.25;100.00;99455.81;4951468;28;20376;-75
2023/03/09 06:35:25;;;;;;;65.22;24.40;;;;;;;0.25;100.00;99456.69;4951361;28;20038;-75
2023/03/09 06:37:51;;;;;;;62.95;24.25;;;;;;;0.28;100.00;99455.69;4970326;28;20443;-75
2023/03/09 06:40:17;;;;;;;64.72;23.83;;;;;;;0.31;100.00;99459.97;4935573;29;20050;-75
2023/03/09 06:42:42;;;;;;;58.65;22.98;;;;;;;0.31;100.00;99458.16;4935628;29;20399;-75
2023/03/09 06:45:09;;;;;;;56.58;21.30;;;;;;;0.32;100.00;99451.88;4934652;28;20485;-75
2023/03/09 06:47:35;;;;;;;62.15;24.00;;;;;;;0.33;100.00;99466.13;4950160;29;20229;-75
2023/03/09 06:50:07;;;;;;;60.05;24.23;;;;;;;0.35;100.00;99466.91;4951474;29;20027;-75
2023/03/09 06:52:32;;;;;;;64.57;25.10;;;;;;;0.34;100.00;99463.38;4950821;28;20039;-75
2023/03/09 06:54:58;;;;;;;63.65;23.88;;;;;;;0.35;100.00;99466.91;4951690;29;20035;-75
2023/03/09 06:57:25;;;;;;;56.30;22.77;;;;;;;0.39;100.00;99497.91;4950950;28;20502;-75
2023/03/09 06:59:51;;;;;;;65.90;23.42;;;;;;;0.38;100.00;99491.69;4951854;28;20051;-75
2023/03/09 07:02:16;;;;;;;61.63;23.88;;;;;;;0.41;100.00;99496.84;4952195;28;20130;-75
2023/03/09 07:04:41;;;;;;;66.43;25.73;;;;;;;0.42;100.00;99511.09;4964264;28;20118;-75
2023/03/09 07:07:08;;;;;;;60.22;22.42;;;;;;;0.44;100.00;99514.56;4933356;29;20027;-75
2023/03/09 07:09:34;;;;;;;56.55;22.95;;;;;;;0.45;100.00;99524.31;4935333;29;20114;-75
2023/03/09 07:11:59;;;;;;;62.58;22.08;;;;;;;0.48;100.00;99526.84;4952850;29;20035;-75
2023/03/09 07:14:26;;;;;;;54.95;21.90;;;;;;;0.48;100.00;99542.91;4950761;28;20039;-75
2023/03/09 07:16:53;;;;;;;63.72;23.27;;;;;;;0.48;100.00;99556.28;4951892;28;20123;-75
2023/03/09 07:19:18;;;;;;;69.47;24.45;;;;;;;0.49;100.00;99558.84;4952679;29;20479;-75
2023/03/09 07:21:43;;;;;;;64.50;23.55;;;;;;;0.50;100.00;99555.22;4934856;29;20138;-75
2023/03/09 07:24:09;;;;;;;64.20;23.80;;;;;;;0.52;100.00;99555.16;4951177;29;20027;-75
2023/03/09 07:26:34;;;;;;;62.80;23.10;;;;;;;0.55;100.00;99563.00;4951822;28;20204;-75
2023/03/09 07:29:00;;;;;;;59.22;22.08;;;;;;;0.57;100.00;99561.16;4950746;28;20034;-75
2023/03/09 07:31:28;;;;;;;63.55;23.85;;;;;;;0.58;100.00;99560.19;4950630;28;20038;-75
2023/03/09 07:33:55;;;;;;;65.15;22.23;;;;;;;0.58;100.00;99557.50;4951742;28;20514;-75
2023/03/09 07:36:20;;;;;;;59.95;22.90;;;;;;;0.59;100.00;99571.75;4951382;28;20442;-75
2023/03/09 07:38:47;;;;;;;63.40;23.05;;;;;;;0.61;100.00;99583.25;4952133;28;20130;-75
2023/03/09 07:41:12;;;;;;;69.85;24.88;;;;;;;0.63;100.00;99581.34;4951706;28;20047;-74
2023/03/09 07:43:43;;;;;;;61.72;24.40;;;;;;;0.63;100.00;99592.94;4950396;28;20513;-75
2023/03/09 07:46:17;;;;;;;57.65;21.90;;;;;;;0.64;100.00;99593.78;4950268;28;20070;-75
2023/03/09 07:48:44;;;;;;;63.85;21.45;;;;;;;0.64;100.00;99597.31;4951979;28;20046;-75
2023/03/09 07:51:10;;;;;;;53.78;21.20;;;;;;;0.64;100.00;99602.69;4951971;29;20039;-75
2023/03/09 07:53:37;;;;;;;56.92;21.48;;;;;;;0.63;100.00;99597.41;4951823;29;20510;-75
2023/03/09 07:56:04;;;;;;;61.10;21.73;;;;;;;0.63;100.00;99582.22;4950693;29;20079;-75
2023/03/09 07:58:34;;;;;;;53.55;20.33;;;;;;;0.64;100.00;99585.75;4951432;28;20522;-74
2023/03/09 08:01:00;;;;;;;65.55;22.08;;;;;;;0.68;100.00;99593.56;4951832;28;20031;-75
2023/03/09 08:03:26;;;;;;;55.80;20.17;;;;;;;0.69;100.00;99613.16;4953427;28;20027;-75
2023/03/09 08:05:55;;;;;;;64.28;21.13;;;;;;;0.67;100.00;99607.88;4969659;28;20352;-74
2023/03/09 08:08:25;;;;;;;56.75;21.05;;;;;;;0.72;100.00;99605.81;4939376;29;20035;-75
2023/03/09 08:10:52;;;;;;;50.05;20.08;;;;;;;0.74;100.00;99608.41;4951738;29;20179;-75
2023/03/09 08:13:18;;;;;;;58.05;22.65;;;;;;;0.76;100.00;99615.44;4948964;29;20475;-74
2023/03/09 08:15:43;;;;;;;60.55;21.15;;;;;;;0.81;100.00;99627.72;4949859;28;20031;-75
2023/03/09 08:18:09;;;;;;;59.33;22.33;;;;;;;0.83;100.00;99632.03;4950279;28;20403;-75
2023/03/09 08:20:35;;;;;;;54.08;22.38;;;;;;;0.83;100.00;99634.72;4949958;29;20131;-75
2023/03/09 08:23:01;;;;;;;54.05;21.45;;;;;;;0.88;100.00;99632.66;4934147;29;20035;-75
2023/03/09 08:25:27;;;;;;;61.20;23.73;;;;;;;0.92;100.00;99644.94;4949537;29;20122;-75
2023/03/09 08:27:53;;;;;;;56.10;21.17;;;;;;;0.92;100.00;99636.91;4933963;29;20054;-75
2023/03/09 08:30:20;;;;;;;56.58;21.35;;;;;;;0.94;100.00;99636.84;4943914;28;20426;-75
2023/03/09 08:32:47;;;;;;;58.15;20.27;;;;;;;0.94;100.00;99639.53;4950944;28;20074;-75
2023/03/09 08:35:14;;;;;;;61.30;24.17;;;;;;;0.99;100.00;99643.69;4951117;29;20027;-74
2023/03/09 08:37:40;;;;;;;53.78;21.20;;;;;;;1.01;100.00;99644.47;4951007;29;20049;-74
2023/03/09 08:40:06;;;;;;;57.45;22.30;;;;;;;1.03;100.00;99655.09;4950873;28;20121;-74
2023/03/09 08:42:32;;;;;;;62.88;21.45;;;;;;;1.07;100.00;99666.50;4950886;29;20042;-75
2023/03/09 08:44:57;;;;;;;59.60;19.90;;;;;;;1.09;100.00;99669.97;4949140;28;20027;-75
2023/03/09 08:47:22;;;;;;;52.45;20.38;;;;;;;1.08;100.00;99670.94;4950525;28;20480;-74
2023/03/09 08:49:48;;;;;;;57.72;21.67;;;;;;;1.09;100.00;99662.81;4949206;29;20070;-75
2023/03/09 08:52:13;;;;;;;61.47;21.90;;;;;;;1.15;100.00;99666.97;4949272;29;20439;-75
2023/03/09 08:54:39;;;;;;;57.53;21.50;;;;;;;1.20;100.00;99671.13;4950484;28;20047;-74
2023/03/09 08:57:04;;;;;;;64.38;22.38;;;;;;;1.27;100.00;99675.22;4949217;28;20038;-74
2023/03/09 08:59:31;;;;;;;58.00;22.52;;;;;;;1.37;100.00;99670.25;4949268;28;20054;-75
2023/03/09 09:01:57;;;;;;;63.35;22.08;;;;;;;1.40;100.00;99672.78;4948342;28;20074;-75
2023/03/09 09:04:23;;;;;;;58.13;21.40;;;;;;;1.49;100.00;99692.81;4949141;28;20035;-74
2023/03/09 09:06:49;;;;;;;68.28;22.50;;;;;;;1.60;100.00;99703.00;4949030;29;20098;-74
2023/03/09 09:09:15;;;;;;;56.97;20.40;;;;;;;1.61;100.00;99694.00;4949256;29;20085;-75
2023/03/09 09:11:40;;;;;;;64.60;21.15;;;;;;;1.69;100.00;99706.03;4950109;28;20515;-75
2023/03/09 09:14:06;;;;;;;70.63;23.48;;;;;;;1.75;100.00;99703.00;4950452;28;20036;-75
2023/03/09 09:16:31;;;;;;;62.25;22.75;;;;;;;1.83;100.00;99707.09;4950911;28;20035;-75
2023/03/09 09:18:57;;;;;;;60.50;21.80;;;;;;;1.92;100.00;99717.31;4949557;28;20550;-75
2023/03/09 09:21:23;;;;;;;92.10;26.45;;;;;;;1.99;100.00;99713.34;4950058;28;20063;-75
2023/03/09 09:23:49;;;;;;;58.15;21.42;;;;;;;1.99;100.00;99707.97;4950509;29;20042;-75
2023/03/09 09:26:16;;;;;;;60.58;21.17;;;;;;;2.04;100.00;99705.91;4949969;28;20400;-75
2023/03/09 09:28:42;;;;;;;60.38;22.67;;;;;;;2.06;100.00;99708.50;4948906;28;20035;-75
2023/03/09 09:31:15;;;;;;;58.58;21.10;;;;;;;2.08;100.00;99707.47;4947412;29;20117;-75
2023/03/09 09:33:41;;;;;;;55.03;20.42;;;;;;;2.10;100.00;99700.22;4949287;28;20407;-75
2023/03/09 09:36:10;;;;;;;63.88;23.50;;;;;;;2.20;100.00;99698.72;4950487;29;20027;-75
2023/03/09 09:38:38;;;;;;;65.25;22.63;;;;;;;2.23;100.00;99700.34;4950233;28;20031;-75
2023/03/09 09:41:32;;;;;;;56.45;22.50;;;;;;;2.32;100.00;99702.53;4949082;29;20035;-75
2023/03/09 09:44:02;;;;;;;52.97;20.27;;;;;;;2.41;100.00;99719.91;4939941;28;20055;-75
2023/03/09 09:46:30;;;;;;;57.50;21.77;;;;;;;2.48;100.00;99715.94;4948130;29;20113;-75
2023/03/09 09:48:57;;;;;;;57.33;21.05;;;;;;;2.47;100.00;99723.13;4950003;28;20074;-75
2023/03/09 09:51:33;;;;;;;58.33;20.58;;;;;;;2.50;100.00;99736.38;4948370;28;20431;-75
2023/03/09 09:54:22;;;;;;;63.75;21.60;;;;;;;2.57;100.00;99720.78;4949395;29;20105;-75
2023/03/09 09:56:52;;;;;;;62.88;21.15;;;;;;;2.59;100.00;99723.38;4949751;28;20051;-75
2023/03/09 09:59:28;;;;;;;56.70;20.58;;;;;;;2.58;100.00;99727.03;4950248;28;20062;-75
2023/03/09 10:02:02;;;;;;;59.38;21.70;;;;;;;2.63;100.00;99728.47;4953165;28;20066;-74
2023/03/09 10:04:50;;;;;;;57.95;23.80;;;;;;;2.67;100.00;99735.41;4963692;28;20039;-75
2023/03/09 10:07:19;;;;;;;59.88;21.25;;;;;;;2.65;100.00;99726.56;4972805;28;20089;-74
2023/03/09 10:09:51;;;;;;;60.45;21.63;;;;;;;2.66;100.00;99733.69;4955230;28;20549;-75
2023/03/09 10:12:19;;;;;;;58.53;23.02;;;;;;;2.65;100.00;99734.59;4950715;29;20047;-74
2023/03/09 10:14:52;;;;;;;54.67;21.67;;;;;;;2.68;100.00;99736.25;4942170;29;20504;-75
2023/03/09 10:17:31;;;;;;;60.13;22.65;;;;;;;2.74;100.00;99736.75;4953320;28;20039;-74
2023/03/09 10:20:02;;;;;;;58.97;20.33;;;;;;;2.80;100.00;99731.06;4936433;29;20521;-75
2023/03/09 10:22:28;;;;;;;58.70;22.05;;;;;;;2.91;100.00;99735.78;4936535;29;20047;-75
2023/03/09 10:24:55;;;;;;;63.97;22.65;;;;;;;3.01;100.00;99739.66;4953400;29;20109;-75
2023/03/09 10:27:42;;;;;;;56.85;22.83;;;;;;;3.10;100.00;99746.31;4951817;28;20050;-74
2023/03/09 10:30:28;;;;;;;58.90;22.83;;;;;;;3.10;100.00;99732.88;4952442;28;20061;-75
2023/03/09 10:32:59;;;;;;;71.03;24.77;;;;;;;3.09;100.00;99727.59;4952996;28;20039;-75
2023/03/09 10:35:45;;;;;;;60.50;22.95;;;;;;;3.23;100.00;99717.75;4951666;28;20507;-75
2023/03/09 10:38:16;;;;;;;56.28;21.00;;;;;;;3.35;100.00;99717.97;4951872;28;20121;-74
2023/03/09 10:41:02;;;;;;;60.00;24.92;;;;;;;3.52;100.00;99717.78;4951500;28;20066;-75
2023/03/09 10:43:32;;;;;;;56.92;21.23;;;;;;;3.67;100.00;99730.28;4951776;28;20055;-75
2023/03/09 10:46:14;;;;;;;63.15;24.25;;;;;;;3.79;100.00;99732.22;4951912;28;20451;-75
2023/03/09 10:48:39;;;;;;;55.40;24.10;;;;;;;3.78;99.80;99725.13;4951573;28;20035;-74
2023/03/09 10:51:19;;;;;;;53.65;21.38;;;;;;;3.73;100.00;99727.25;4952946;29;20501;-75
2023/03/09 10:53:46;;;;;;;51.75;21.52;;;;;;;3.74;100.00;99738.84;4952725;28;20031;-74
2023/03/09 10:56:22;;;;;;;53.80;22.10;;;;;;;3.74;99.45;99734.34;4952736;29;20023;-75
2023/03/09 10:59:06;;;;;;;53.55;20.40;;;;;;;3.66;99.40;99733.94;4952159;28;20062;-75
2023/03/09 11:01:35;;;;;;;62.15;25.17;;;;;;;3.69;100.00;99736.44;4951016;28;20062;-74
2023/03/09 11:04:01;;;;;;;58.72;23.13;;;;;;;3.72;100.00;99736.25;4950523;29;20506;-74
2023/03/09 11:06:27;;;;;;;59.67;23.10;;;;;;;3.80;100.00;99728.56;4935485;29;20039;-75
2023/03/09 11:08:55;;;;;;;62.22;23.77;;;;;;;3.89;100.00;99726.28;4952277;28;20038;-75
2023/03/09 11:11:24;;;;;;;55.25;22.63;;;;;;;3.97;100.00;99727.53;4951762;28;20043;-75
2023/03/09 11:13:50;;;;;;;53.33;21.95;;;;;;;3.96;97.46;99722.22;4951909;28;20118;-75
2023/03/09 11:16:22;;;;;;;49.60;19.25;;;;;;;4.04;100.00;99727.97;4952172;28;20506;-74
2023/03/09 11:18:51;;;;;;;57.53;21.70;;;;;;;4.18;100.00;99727.97;4952409;28;20035;-75